sensor_id;sensor_type;location;lat;lon;timestamp;pressure;altitude;pressure_sealevel;temperature;humidity
64739;BME280;51175;51.186;0.276;2023-02-22T00:00:22;100944.31;;;13.49;68.54
64739;BME280;51175;51.186;0.276;2023-02-22T00:01:05;100946.16;;;13.49;68.61
64739;BME280;51175;51.186;0.276;2023-02-22T00:01:48;100940.06;;;13.48;68.52
64739;BME280;51175;51.186;0.276;2023-02-22T00:02:39;100927.06;;;13.47;68.48
64739;BME280;51175;51.186;0.276;2023-02-22T00:03:22;100930.50;;;13.47;68.81
64739;BME280;51175;51.186;0.276;2023-02-22T00:03:53;100933.44;;;13.46;68.78
64739;BME280;51175;51.186;0.276;2023-02-22T00:04:24;100932.63;;;13.45;68.85
64739;BME280;51175;51.186;0.276;2023-02-22T00:04:54;100936.91;;;13.46;68.60
64739;BME280;51175;51.186;0.276;2023-02-22T00:05:26;100940.59;;;13.45;68.71
64739;BME280;51175;51.186;0.276;2023-02-22T00:05:59;100936.09;;;13.46;68.74
64739;BME280;51175;51.186;0.276;2023-02-22T00:06:33;100939.81;;;13.45;68.86
64739;BME280;51175;51.186;0.276;2023-02-22T00:07:04;100946.97;;;13.44;68.88
64739;BME280;51175;51.186;0.276;2023-02-22T00:07:34;100943.50;;;13.44;68.82
64739;BME280;51175;51.186;0.276;2023-02-22T00:08:06;100940.84;;;13.44;68.64
64739;BME280;51175;51.186;0.276;2023-02-22T00:08:40;100935.56;;;13.44;68.81
64739;BME280;51175;51.186;0.276;2023-02-22T00:09:10;100930.50;;;13.42;68.76
64739;BME280;51175;51.186;0.276;2023-02-22T00:09:41;100936.63;;;13.43;68.67
64739;BME280;51175;51.186;0.276;2023-02-22T00:10:13;100936.63;;;13.43;68.59
64739;BME280;51175;51.186;0.276;2023-02-22T00:10:43;100938.47;;;13.42;68.65
64739;BME280;51175;51.186;0.276;2023-02-22T00:11:15;100937.44;;;13.43;68.62
64739;BME280;51175;51.186;0.276;2023-02-22T00:11:47;100933.97;;;13.43;68.70
64739;BME280;51175;51.186;0.276;2023-02-22T00:12:17;100933.16;;;13.42;68.54
64739;BME280;51175;51.186;0.276;2023-02-22T00:12:51;100927.84;;;13.42;68.54
64739;BME280;51175;51.186;0.276;2023-02-22T00:13:21;100932.38;;;13.41;68.64
64739;BME280;51175;51.186;0.276;2023-02-22T00:13:53;100933.16;;;13.42;68.70
64739;BME280;51175;51.186;0.276;2023-02-22T00:14:26;100931.59;;;13.41;68.63
64739;BME280;51175;51.186;0.276;2023-02-22T00:14:56;100934.25;;;13.41;68.60
64739;BME280;51175;51.186;0.276;2023-02-22T00:15:26;100934.25;;;13.41;68.49
64739;BME280;51175;51.186;0.276;2023-02-22T00:15:58;100942.19;;;13.41;68.66
64739;BME280;51175;51.186;0.276;2023-02-22T00:16:29;100936.09;;;13.40;68.55
64739;BME280;51175;51.186;0.276;2023-02-22T00:17:00;100933.44;;;13.40;68.56
64739;BME280;51175;51.186;0.276;2023-02-22T00:17:31;100937.97;;;13.40;68.64
64739;BME280;51175;51.186;0.276;2023-02-22T00:18:02;100932.66;;;13.40;68.41
64739;BME280;51175;51.186;0.276;2023-02-22T00:18:33;100938.75;;;13.40;68.69
64739;BME280;51175;51.186;0.276;2023-02-22T00:19:03;100931.84;;;13.39;68.65
64739;BME280;51175;51.186;0.276;2023-02-22T00:19:35;100938.75;;;13.40;68.67
64739;BME280;51175;51.186;0.276;2023-02-22T00:20:06;100932.66;;;13.40;68.57
64739;BME280;51175;51.186;0.276;2023-02-22T00:20:37;100936.09;;;13.40;68.74
64739;BME280;51175;51.186;0.276;2023-02-22T00:21:12;100935.56;;;13.38;68.54
64739;BME280;51175;51.186;0.276;2023-02-22T00:21:42;100935.31;;;13.40;68.42
64739;BME280;51175;51.186;0.276;2023-02-22T00:22:13;100934.50;;;13.39;68.55
64739;BME280;51175;51.186;0.276;2023-02-22T00:22:49;100931.03;;;13.39;68.60
64739;BME280;51175;51.186;0.276;2023-02-22T00:23:22;100932.13;;;13.38;68.49
64739;BME280;51175;51.186;0.276;2023-02-22T00:23:54;100938.22;;;13.38;68.71
64739;BME280;51175;51.186;0.276;2023-02-22T00:24:25;100940.88;;;13.38;68.69
64739;BME280;51175;51.186;0.276;2023-02-22T00:24:58;100932.94;;;13.38;68.66
64739;BME280;51175;51.186;0.276;2023-02-22T00:25:28;100937.44;;;13.38;68.67
64739;BME280;51175;51.186;0.276;2023-02-22T00:26:00;100942.72;;;13.38;68.69
64739;BME280;51175;51.186;0.276;2023-02-22T00:26:32;100934.78;;;13.38;68.63
64739;BME280;51175;51.186;0.276;2023-02-22T00:27:02;100935.84;;;13.37;68.70
64739;BME280;51175;51.186;0.276;2023-02-22T00:27:32;100935.56;;;13.38;68.77
64739;BME280;51175;51.186;0.276;2023-02-22T00:28:03;100932.13;;;13.38;68.51
64739;BME280;51175;51.186;0.276;2023-02-22T00:28:35;100926.00;;;13.37;68.58
64739;BME280;51175;51.186;0.276;2023-02-22T00:29:06;100925.22;;;13.37;68.76
64739;BME280;51175;51.186;0.276;2023-02-22T00:29:43;100927.09;;;13.36;68.39
64739;BME280;51175;51.186;0.276;2023-02-22T00:30:16;100927.88;;;13.37;68.54
64739;BME280;51175;51.186;0.276;2023-02-22T00:30:48;100927.09;;;13.36;68.66
64739;BME280;51175;51.186;0.276;2023-02-22T00:31:19;100925.50;;;13.35;68.74
64739;BME280;51175;51.186;0.276;2023-02-22T00:31:50;100929.75;;;13.36;68.62
64739;BME280;51175;51.186;0.276;2023-02-22T00:32:21;100922.84;;;13.35;68.85
64739;BME280;51175;51.186;0.276;2023-02-22T00:32:52;100917.53;;;13.35;68.59
64739;BME280;51175;51.186;0.276;2023-02-22T00:33:23;100928.94;;;13.36;68.57
64739;BME280;51175;51.186;0.276;2023-02-22T00:33:53;100915.94;;;13.34;68.56
64739;BME280;51175;51.186;0.276;2023-02-22T00:34:24;100919.38;;;13.35;68.79
64739;BME280;51175;51.186;0.276;2023-02-22T00:34:54;100913.28;;;13.34;68.59
64739;BME280;51175;51.186;0.276;2023-02-22T00:35:27;100913.28;;;13.34;68.70
64739;BME280;51175;51.186;0.276;2023-02-22T00:35:58;100913.28;;;13.34;68.73
64739;BME280;51175;51.186;0.276;2023-02-22T00:36:28;100915.94;;;13.34;68.76
64739;BME280;51175;51.186;0.276;2023-02-22T00:36:59;100919.38;;;13.35;68.73
64739;BME280;51175;51.186;0.276;2023-02-22T00:37:32;100914.34;;;13.33;68.85
64739;BME280;51175;51.186;0.276;2023-02-22T00:38:03;100915.16;;;13.34;68.66
64739;BME280;51175;51.186;0.276;2023-02-22T00:38:33;100915.94;;;13.34;68.77
64739;BME280;51175;51.186;0.276;2023-02-22T00:39:04;100917.00;;;13.33;68.70
64739;BME280;51175;51.186;0.276;2023-02-22T00:39:34;100913.56;;;13.33;68.65
64739;BME280;51175;51.186;0.276;2023-02-22T00:40:04;100917.81;;;13.34;68.67
64739;BME280;51175;51.186;0.276;2023-02-22T00:40:37;100914.34;;;13.33;68.64
64739;BME280;51175;51.186;0.276;2023-02-22T00:41:11;100922.31;;;13.33;68.54
64739;BME280;51175;51.186;0.276;2023-02-22T00:41:41;100919.66;;;13.33;68.69
64739;BME280;51175;51.186;0.276;2023-02-22T00:42:11;100920.69;;;13.32;68.70
64739;BME280;51175;51.186;0.276;2023-02-22T00:42:42;100917.00;;;13.33;68.53
64739;BME280;51175;51.186;0.276;2023-02-22T00:43:13;100918.84;;;13.33;68.70
64739;BME280;51175;51.186;0.276;2023-02-22T00:43:44;100919.66;;;13.33;68.57
64739;BME280;51175;51.186;0.276;2023-02-22T00:44:14;100918.84;;;13.33;68.69
64739;BME280;51175;51.186;0.276;2023-02-22T00:44:44;100919.94;;;13.32;68.58
64739;BME280;51175;51.186;0.276;2023-02-22T00:45:19;100918.06;;;13.32;68.71
64739;BME280;51175;51.186;0.276;2023-02-22T00:45:50;100920.69;;;13.32;68.68
64739;BME280;51175;51.186;0.276;2023-02-22T00:46:20;100909.31;;;13.32;68.54
64739;BME280;51175;51.186;0.276;2023-02-22T00:46:51;100915.41;;;13.32;68.60
64739;BME280;51175;51.186;0.276;2023-02-22T00:47:22;100911.16;;;13.31;68.49
64739;BME280;51175;51.186;0.276;2023-02-22T00:47:52;100913.00;;;13.31;68.63
64739;BME280;51175;51.186;0.276;2023-02-22T00:48:25;100908.50;;;13.31;68.67
64739;BME280;51175;51.186;0.276;2023-02-22T00:48:55;100911.97;;;13.32;68.58
64739;BME280;51175;51.186;0.276;2023-02-22T00:49:26;100917.28;;;13.32;68.34
64739;BME280;51175;51.186;0.276;2023-02-22T00:49:56;100913.81;;;13.31;68.68
64739;BME280;51175;51.186;0.276;2023-02-22T00:50:28;100919.13;;;13.31;68.70
64739;BME280;51175;51.186;0.276;2023-02-22T00:50:59;100910.34;;;13.31;68.58
64739;BME280;51175;51.186;0.276;2023-02-22T00:51:29;100915.66;;;13.31;68.56
64739;BME280;51175;51.186;0.276;2023-02-22T00:52:00;100911.97;;;13.32;68.65
64739;BME280;51175;51.186;0.276;2023-02-22T00:52:30;100912.22;;;13.30;68.34
64739;BME280;51175;51.186;0.276;2023-02-22T00:53:01;100906.13;;;13.29;68.51
64739;BME280;51175;51.186;0.276;2023-02-22T00:53:32;100912.22;;;13.30;68.49
64739;BME280;51175;51.186;0.276;2023-02-22T00:54:03;100907.97;;;13.29;68.81
64739;BME280;51175;51.186;0.276;2023-02-22T00:54:34;100907.97;;;13.29;68.45
64739;BME280;51175;51.186;0.276;2023-02-22T00:55:08;100909.59;;;13.30;68.78
64739;BME280;51175;51.186;0.276;2023-02-22T00:55:38;100913.28;;;13.29;68.42
64739;BME280;51175;51.186;0.276;2023-02-22T00:56:09;100903.47;;;13.29;68.61
64739;BME280;51175;51.186;0.276;2023-02-22T00:56:40;100909.59;;;13.30;68.60
64739;BME280;51175;51.186;0.276;2023-02-22T00:57:11;100908.78;;;13.29;68.63
64739;BME280;51175;51.186;0.276;2023-02-22T00:57:42;100902.66;;;13.29;68.31
64739;BME280;51175;51.186;0.276;2023-02-22T00:58:12;100903.47;;;13.29;68.52
64739;BME280;51175;51.186;0.276;2023-02-22T00:58:43;100897.38;;;13.29;68.40
64739;BME280;51175;51.186;0.276;2023-02-22T00:59:13;100899.25;;;13.28;68.58
64739;BME280;51175;51.186;0.276;2023-02-22T00:59:44;100902.66;;;13.29;68.62
64739;BME280;51175;51.186;0.276;2023-02-22T01:00:18;100901.91;;;13.28;68.58
64739;BME280;51175;51.186;0.276;2023-02-22T01:00:49;100898.44;;;13.28;68.71
64739;BME280;51175;51.186;0.276;2023-02-22T01:01:19;100899.25;;;13.28;68.39
64739;BME280;51175;51.186;0.276;2023-02-22T01:01:49;100900.00;;;13.29;68.54
64739;BME280;51175;51.186;0.276;2023-02-22T01:02:20;100895.78;;;13.28;68.52
64739;BME280;51175;51.186;0.276;2023-02-22T01:02:51;100894.72;;;13.29;68.81
64739;BME280;51175;51.186;0.276;2023-02-22T01:03:21;100890.47;;;13.28;68.38
64739;BME280;51175;51.186;0.276;2023-02-22T01:03:52;100893.13;;;13.28;68.42
64739;BME280;51175;51.186;0.276;2023-02-22T01:04:23;100884.38;;;13.27;68.51
64739;BME280;51175;51.186;0.276;2023-02-22T01:04:56;100887.03;;;13.27;68.41
64739;BME280;51175;51.186;0.276;2023-02-22T01:05:30;100885.44;;;13.26;68.76
64739;BME280;51175;51.186;0.276;2023-02-22T01:06:04;100887.28;;;13.26;68.60
64739;BME280;51175;51.186;0.276;2023-02-22T01:06:35;100890.75;;;13.26;68.42
64739;BME280;51175;51.186;0.276;2023-02-22T01:07:05;100882.78;;;13.26;68.55
64739;BME280;51175;51.186;0.276;2023-02-22T01:07:36;100888.09;;;13.26;68.47
64739;BME280;51175;51.186;0.276;2023-02-22T01:08:08;100884.63;;;13.26;68.62
64739;BME280;51175;51.186;0.276;2023-02-22T01:08:43;100887.28;;;13.26;68.66
64739;BME280;51175;51.186;0.276;2023-02-22T01:09:14;100881.22;;;13.25;68.47
64739;BME280;51175;51.186;0.276;2023-02-22T01:09:44;100881.22;;;13.25;68.64
64739;BME280;51175;51.186;0.276;2023-02-22T01:10:16;100873.25;;;13.25;68.55
64739;BME280;51175;51.186;0.276;2023-02-22T01:10:48;100881.22;;;13.25;68.43
64739;BME280;51175;51.186;0.276;2023-02-22T01:11:21;100883.88;;;13.25;68.58
64739;BME280;51175;51.186;0.276;2023-02-22T01:11:52;100884.63;;;13.26;68.59
64739;BME280;51175;51.186;0.276;2023-02-22T01:12:27;100881.47;;;13.24;68.33
64739;BME280;51175;51.186;0.276;2023-02-22T01:12:59;100881.22;;;13.25;68.42
64739;BME280;51175;51.186;0.276;2023-02-22T01:13:29;100879.88;;;13.23;68.68
64739;BME280;51175;51.186;0.276;2023-02-22T01:13:59;100874.56;;;13.23;68.49
64739;BME280;51175;51.186;0.276;2023-02-22T01:14:30;100880.66;;;13.23;68.61
64739;BME280;51175;51.186;0.276;2023-02-22T01:15:02;100885.97;;;13.23;68.63
64739;BME280;51175;51.186;0.276;2023-02-22T01:15:34;100885.16;;;13.23;68.68
64739;BME280;51175;51.186;0.276;2023-02-22T01:16:05;100885.16;;;13.23;68.50
64739;BME280;51175;51.186;0.276;2023-02-22T01:16:38;100882.78;;;13.21;68.42
64739;BME280;51175;51.186;0.276;2023-02-22T01:17:09;100886.25;;;13.22;68.57
64739;BME280;51175;51.186;0.276;2023-02-22T01:17:39;100886.25;;;13.22;68.42
64739;BME280;51175;51.186;0.276;2023-02-22T01:18:12;100888.91;;;13.22;68.46
64739;BME280;51175;51.186;0.276;2023-02-22T01:18:46;100880.94;;;13.22;68.55
64739;BME280;51175;51.186;0.276;2023-02-22T01:19:16;100883.59;;;13.22;68.49
64739;BME280;51175;51.186;0.276;2023-02-22T01:19:46;100889.97;;;13.21;68.40
64739;BME280;51175;51.186;0.276;2023-02-22T01:20:17;100880.41;;;13.20;68.52
64739;BME280;51175;51.186;0.276;2023-02-22T01:20:48;100889.16;;;13.20;68.62
64739;BME280;51175;51.186;0.276;2023-02-22T01:21:18;100889.16;;;13.20;68.63
64739;BME280;51175;51.186;0.276;2023-02-22T01:21:49;100887.31;;;13.21;68.72
64739;BME280;51175;51.186;0.276;2023-02-22T01:22:20;100888.34;;;13.20;68.61
64739;BME280;51175;51.186;0.276;2023-02-22T01:22:52;100892.63;;;13.21;68.58
64739;BME280;51175;51.186;0.276;2023-02-22T01:23:23;100891.00;;;13.20;68.67
64739;BME280;51175;51.186;0.276;2023-02-22T01:23:53;100898.19;;;13.19;68.72
64739;BME280;51175;51.186;0.276;2023-02-22T01:24:24;100890.22;;;13.19;68.62
64739;BME280;51175;51.186;0.276;2023-02-22T01:24:54;100884.94;;;13.19;68.51
64739;BME280;51175;51.186;0.276;2023-02-22T01:25:28;100888.34;;;13.20;68.44
64739;BME280;51175;51.186;0.276;2023-02-22T01:25:58;100890.22;;;13.19;68.36
64739;BME280;51175;51.186;0.276;2023-02-22T01:26:29;100890.22;;;13.19;68.55
64739;BME280;51175;51.186;0.276;2023-02-22T01:26:59;100882.28;;;13.19;68.34
64739;BME280;51175;51.186;0.276;2023-02-22T01:27:33;100883.06;;;13.20;68.48
64739;BME280;51175;51.186;0.276;2023-02-22T01:28:05;100884.13;;;13.19;68.50
64739;BME280;51175;51.186;0.276;2023-02-22T01:28:37;100881.47;;;13.19;68.70
64739;BME280;51175;51.186;0.276;2023-02-22T01:29:11;100882.53;;;13.18;68.42
64739;BME280;51175;51.186;0.276;2023-02-22T01:29:44;100883.31;;;13.18;68.46
64739;BME280;51175;51.186;0.276;2023-02-22T01:30:49;100877.25;;;13.18;68.55
64739;BME280;51175;51.186;0.276;2023-02-22T01:31:19;100879.09;;;13.17;68.60
64739;BME280;51175;51.186;0.276;2023-02-22T01:31:52;100881.75;;;13.17;68.61
64739;BME280;51175;51.186;0.276;2023-02-22T01:32:23;100876.44;;;13.17;68.65
64739;BME280;51175;51.186;0.276;2023-02-22T01:32:56;100869.56;;;13.16;68.49
64739;BME280;51175;51.186;0.276;2023-02-22T01:33:27;100877.50;;;13.16;68.49
64739;BME280;51175;51.186;0.276;2023-02-22T01:33:57;100871.41;;;13.15;68.46
64739;BME280;51175;51.186;0.276;2023-02-22T01:34:28;100866.91;;;13.16;68.60
64739;BME280;51175;51.186;0.276;2023-02-22T01:34:59;100869.56;;;13.16;68.63
64739;BME280;51175;51.186;0.276;2023-02-22T01:35:32;100871.41;;;13.15;68.49
64739;BME280;51175;51.186;0.276;2023-02-22T01:36:02;100868.75;;;13.15;68.52
64739;BME280;51175;51.186;0.276;2023-02-22T01:36:33;100866.91;;;13.16;68.51
64739;BME280;51175;51.186;0.276;2023-02-22T01:37:03;100874.06;;;13.15;68.50
64739;BME280;51175;51.186;0.276;2023-02-22T01:37:35;100866.09;;;13.15;68.39
64739;BME280;51175;51.186;0.276;2023-02-22T01:38:06;100869.81;;;13.14;68.72
64739;BME280;51175;51.186;0.276;2023-02-22T01:38:37;100864.53;;;13.14;68.64
64739;BME280;51175;51.186;0.276;2023-02-22T01:39:11;100863.44;;;13.15;68.66
64739;BME280;51175;51.186;0.276;2023-02-22T01:39:41;100873.25;;;13.15;68.69
64739;BME280;51175;51.186;0.276;2023-02-22T01:40:24;100863.44;;;13.15;68.52
64739;BME280;51175;51.186;0.276;2023-02-22T01:40:55;100865.28;;;13.15;68.41
64739;BME280;51175;51.186;0.276;2023-02-22T01:41:25;100866.09;;;13.15;68.51
64739;BME280;51175;51.186;0.276;2023-02-22T01:41:56;100863.44;;;13.15;68.54
64739;BME280;51175;51.186;0.276;2023-02-22T01:42:33;100854.97;;;13.13;68.48
64739;BME280;51175;51.186;0.276;2023-02-22T01:43:35;100859.22;;;13.14;68.63
64739;BME280;51175;51.186;0.276;2023-02-22T01:44:32;100852.56;;;13.12;68.31
64739;BME280;51175;51.186;0.276;2023-02-22T01:46:25;100844.88;;;13.10;68.35
64739;BME280;51175;51.186;0.276;2023-02-22T01:46:56;100851.25;;;13.09;68.45
64739;BME280;51175;51.186;0.276;2023-02-22T01:47:26;100847.03;;;13.08;68.80
64739;BME280;51175;51.186;0.276;2023-02-22T01:48:06;100857.63;;;13.08;68.54
64739;BME280;51175;51.186;0.276;2023-02-22T01:49:20;100845.41;;;13.07;68.71
64739;BME280;51175;51.186;0.276;2023-02-22T01:49:50;100851.00;;;13.06;68.70
64739;BME280;51175;51.186;0.276;2023-02-22T01:50:21;100848.34;;;13.06;68.73
64739;BME280;51175;51.186;0.276;2023-02-22T01:51:01;100847.28;;;13.07;68.54
64739;BME280;51175;51.186;0.276;2023-02-22T01:51:36;100851.00;;;13.06;68.67
64739;BME280;51175;51.186;0.276;2023-02-22T01:52:11;100849.41;;;13.04;68.56
64739;BME280;51175;51.186;0.276;2023-02-22T01:52:43;100850.22;;;13.05;68.62
64739;BME280;51175;51.186;0.276;2023-02-22T01:53:15;100847.56;;;13.05;68.76
64739;BME280;51175;51.186;0.276;2023-02-22T01:54:02;100846.50;;;13.06;68.48
64739;BME280;51175;51.186;0.276;2023-02-22T01:54:39;100845.94;;;13.04;68.79
64739;BME280;51175;51.186;0.276;2023-02-22T01:55:11;100851.25;;;13.04;68.74
64739;BME280;51175;51.186;0.276;2023-02-22T01:55:42;100845.94;;;13.04;68.75
64739;BME280;51175;51.186;0.276;2023-02-22T01:56:14;100849.69;;;13.03;68.57
64739;BME280;51175;51.186;0.276;2023-02-22T01:56:49;100844.38;;;13.03;68.77
64739;BME280;51175;51.186;0.276;2023-02-22T01:57:26;100845.44;;;13.02;68.61
64739;BME280;51175;51.186;0.276;2023-02-22T01:57:59;100847.03;;;13.03;68.74
64739;BME280;51175;51.186;0.276;2023-02-22T01:58:32;100848.09;;;13.02;68.58
64739;BME280;51175;51.186;0.276;2023-02-22T01:59:08;100838.53;;;13.01;68.90
64739;BME280;51175;51.186;0.276;2023-02-22T01:59:43;100842.00;;;13.01;68.76
64739;BME280;51175;51.186;0.276;2023-02-22T02:00:18;100839.34;;;13.01;68.74
64739;BME280;51175;51.186;0.276;2023-02-22T02:00:50;100844.63;;;13.01;68.57
64739;BME280;51175;51.186;0.276;2023-02-22T02:01:22;100835.09;;;13.00;68.63
64739;BME280;51175;51.186;0.276;2023-02-22T02:01:52;100840.16;;;13.02;68.67
64739;BME280;51175;51.186;0.276;2023-02-22T02:02:24;100835.88;;;13.01;68.66
64739;BME280;51175;51.186;0.276;2023-02-22T02:02:57;100839.34;;;13.01;68.60
64739;BME280;51175;51.186;0.276;2023-02-22T02:03:32;100842.78;;;13.02;68.61
64739;BME280;51175;51.186;0.276;2023-02-22T02:04:11;100839.34;;;13.01;68.67
64739;BME280;51175;51.186;0.276;2023-02-22T02:04:44;100835.88;;;13.01;68.59
64739;BME280;51175;51.186;0.276;2023-02-22T02:05:15;100835.88;;;13.01;68.74
64739;BME280;51175;51.186;0.276;2023-02-22T02:05:47;100835.88;;;13.01;68.48
64739;BME280;51175;51.186;0.276;2023-02-22T02:06:18;100837.75;;;13.00;68.75
64739;BME280;51175;51.186;0.276;2023-02-22T02:06:50;100835.88;;;13.01;68.54
64739;BME280;51175;51.186;0.276;2023-02-22T02:07:23;100834.84;;;13.02;68.67
64739;BME280;51175;51.186;0.276;2023-02-22T02:07:53;100834.84;;;13.02;68.45
64739;BME280;51175;51.186;0.276;2023-02-22T02:08:34;100834.84;;;13.02;68.45
64739;BME280;51175;51.186;0.276;2023-02-22T02:10:00;100835.88;;;13.01;68.57
64739;BME280;51175;51.186;0.276;2023-02-22T02:10:31;100829.00;;;13.00;68.58
64739;BME280;51175;51.186;0.276;2023-02-22T02:11:04;100831.66;;;13.00;68.88
64739;BME280;51175;51.186;0.276;2023-02-22T02:11:35;100832.69;;;12.99;68.56
64739;BME280;51175;51.186;0.276;2023-02-22T02:12:11;100832.69;;;12.99;68.80
64739;BME280;51175;51.186;0.276;2023-02-22T02:12:45;100824.75;;;12.99;68.51
64739;BME280;51175;51.186;0.276;2023-02-22T02:13:16;100831.91;;;12.98;68.44
64739;BME280;51175;51.186;0.276;2023-02-22T02:13:51;100823.97;;;12.98;68.71
64739;BME280;51175;51.186;0.276;2023-02-22T02:14:24;100828.47;;;12.98;68.84
64739;BME280;51175;51.186;0.276;2023-02-22T02:15:21;100830.84;;;12.99;68.66
64739;BME280;51175;51.186;0.276;2023-02-22T02:15:55;100832.69;;;12.99;68.72
64739;BME280;51175;51.186;0.276;2023-02-22T02:16:35;100827.38;;;12.99;68.55
64739;BME280;51175;51.186;0.276;2023-02-22T02:17:08;100836.41;;;12.98;68.70
64739;BME280;51175;51.186;0.276;2023-02-22T02:17:39;100829.25;;;12.98;68.77
64739;BME280;51175;51.186;0.276;2023-02-22T02:18:11;100826.88;;;12.97;68.68
64739;BME280;51175;51.186;0.276;2023-02-22T02:18:42;100827.66;;;12.97;68.81
64739;BME280;51175;51.186;0.276;2023-02-22T02:20:09;100821.59;;;12.97;68.83
64739;BME280;51175;51.186;0.276;2023-02-22T02:20:22;100825.00;;;12.97;68.58
64739;BME280;51175;51.186;0.276;2023-02-22T02:27:04;100806.47;;;12.92;68.76
64739;BME280;51175;51.186;0.276;2023-02-22T02:30:03;100812.31;;;12.89;68.61
64739;BME280;51175;51.186;0.276;2023-02-22T02:32:38;100807.28;;;12.87;68.81
64739;BME280;51175;51.186;0.276;2023-02-22T02:35:20;100806.75;;;12.85;68.99
64739;BME280;51175;51.186;0.276;2023-02-22T02:36:20;100803.28;;;12.85;68.95
64739;BME280;51175;51.186;0.276;2023-02-22T02:38:46;100790.31;;;12.83;68.81
64739;BME280;51175;51.186;0.276;2023-02-22T02:39:27;100800.13;;;12.83;68.90
64739;BME280;51175;51.186;0.276;2023-02-22T02:40:32;100797.47;;;12.83;69.11
64739;BME280;51175;51.186;0.276;2023-02-22T02:41:11;100799.31;;;12.82;69.00
64739;BME280;51175;51.186;0.276;2023-02-22T02:41:49;100797.75;;;12.81;69.03
64739;BME280;51175;51.186;0.276;2023-02-22T02:42:26;100793.22;;;12.82;68.87
64739;BME280;51175;51.186;0.276;2023-02-22T02:43:27;100791.38;;;12.82;68.89
64739;BME280;51175;51.186;0.276;2023-02-22T02:44:03;100788.72;;;12.82;68.99
64739;BME280;51175;51.186;0.276;2023-02-22T02:44:38;100795.09;;;12.81;68.97
64739;BME280;51175;51.186;0.276;2023-02-22T02:45:14;100792.44;;;12.81;68.99
64739;BME280;51175;51.186;0.276;2023-02-22T02:45:53;100794.03;;;12.82;68.79
64739;BME280;51175;51.186;0.276;2023-02-22T02:46:34;100785.28;;;12.82;68.98
64739;BME280;51175;51.186;0.276;2023-02-22T02:47:14;100795.09;;;12.81;68.85
64739;BME280;51175;51.186;0.276;2023-02-22T02:47:51;100784.50;;;12.81;68.99
64739;BME280;51175;51.186;0.276;2023-02-22T02:48:26;100787.16;;;12.81;68.88
64739;BME280;51175;51.186;0.276;2023-02-22T02:49:00;100786.06;;;12.82;69.02
64739;BME280;51175;51.186;0.276;2023-02-22T02:49:44;100782.63;;;12.82;68.88
64739;BME280;51175;51.186;0.276;2023-02-22T02:50:49;100781.84;;;12.81;68.80
64739;BME280;51175;51.186;0.276;2023-02-22T02:51:27;100781.84;;;12.81;69.12
64739;BME280;51175;51.186;0.276;2023-02-22T02:51:59;100779.19;;;12.81;68.73
64739;BME280;51175;51.186;0.276;2023-02-22T02:52:32;100776.53;;;12.81;68.93
64739;BME280;51175;51.186;0.276;2023-02-22T02:53:06;100776.53;;;12.81;68.62
64739;BME280;51175;51.186;0.276;2023-02-22T02:53:40;100773.91;;;12.81;69.07
64739;BME280;51175;51.186;0.276;2023-02-22T02:54:12;100774.94;;;12.80;68.90
64739;BME280;51175;51.186;0.276;2023-02-22T02:54:45;100774.94;;;12.80;69.03
64739;BME280;51175;51.186;0.276;2023-02-22T02:55:16;100770.44;;;12.81;68.83
64739;BME280;51175;51.186;0.276;2023-02-22T02:55:47;100770.44;;;12.81;68.76
64739;BME280;51175;51.186;0.276;2023-02-22T02:56:18;100770.44;;;12.81;68.86
64739;BME280;51175;51.186;0.276;2023-02-22T02:56:49;100772.00;;;12.82;68.82
64739;BME280;51175;51.186;0.276;2023-02-22T02:57:20;100773.91;;;12.81;68.95
64739;BME280;51175;51.186;0.276;2023-02-22T02:57:51;100773.09;;;12.81;68.83
64739;BME280;51175;51.186;0.276;2023-02-22T02:58:22;100765.13;;;12.81;68.70
64739;BME280;51175;51.186;0.276;2023-02-22T02:58:53;100771.50;;;12.79;68.98
64739;BME280;51175;51.186;0.276;2023-02-22T02:59:32;100758.00;;;12.81;68.91
64739;BME280;51175;51.186;0.276;2023-02-22T03:00:04;100760.63;;;12.81;68.82
64739;BME280;51175;51.186;0.276;2023-02-22T03:00:54;100768.59;;;12.81;68.80
64739;BME280;51175;51.186;0.276;2023-02-22T03:01:44;100764.06;;;12.82;68.84
64739;BME280;51175;51.186;0.276;2023-02-22T03:03:23;100762.47;;;12.81;68.91
64739;BME280;51175;51.186;0.276;2023-02-22T03:08:29;100759.56;;;12.77;68.92
64739;BME280;51175;51.186;0.276;2023-02-22T03:09:38;100764.09;;;12.76;68.80
64739;BME280;51175;51.186;0.276;2023-02-22T03:11:10;100762.47;;;12.75;68.81
64739;BME280;51175;51.186;0.276;2023-02-22T03:12:47;100773.34;;;12.74;68.86
64739;BME280;51175;51.186;0.276;2023-02-22T03:13:39;100769.13;;;12.73;68.87
64739;BME280;51175;51.186;0.276;2023-02-22T03:14:10;100769.13;;;12.73;69.07
64739;BME280;51175;51.186;0.276;2023-02-22T03:16:51;100766.47;;;12.73;69.07
64739;BME280;51175;51.186;0.276;2023-02-22T03:18:49;100767.53;;;12.72;68.82
64739;BME280;51175;51.186;0.276;2023-02-22T03:19:31;100770.97;;;12.72;68.88
64739;BME280;51175;51.186;0.276;2023-02-22T03:20:11;100765.66;;;12.72;68.94
64739;BME280;51175;51.186;0.276;2023-02-22T03:21:03;100771.25;;;12.71;69.03
64739;BME280;51175;51.186;0.276;2023-02-22T03:22:41;100763.28;;;12.71;69.07
64739;BME280;51175;51.186;0.276;2023-02-22T03:23:24;100759.06;;;12.70;69.08
64739;BME280;51175;51.186;0.276;2023-02-22T03:24:06;100760.91;;;12.69;68.96
64739;BME280;51175;51.186;0.276;2023-02-22T03:24:49;100758.25;;;12.69;68.90
64739;BME280;51175;51.186;0.276;2023-02-22T03:25:29;100746.88;;;12.69;68.91
64739;BME280;51175;51.186;0.276;2023-02-22T03:26:07;100754.03;;;12.68;69.21
64739;BME280;51175;51.186;0.276;2023-02-22T03:26:45;100754.03;;;12.68;69.21
64739;BME280;51175;51.186;0.276;2023-02-22T03:27:23;100749.78;;;12.67;69.11